sensor_id;sensor_type;location;lat;lon;timestamp;pressure;altitude;pressure_sealevel;temperature;humidity
77112;BME280;66064;50.226;14.344;2023-12-07T00:00:40;99592.91;;;-0.49;100.00
77112;BME280;66064;50.226;14.344;2023-12-07T00:03:26;99604.47;;;-0.44;100.00
77112;BME280;66064;50.226;14.344;2023-12-07T00:05:52;99593.22;;;-0.43;100.00
77112;BME280;66064;50.226;14.344;2023-12-07T00:08:19;99595.34;;;-0.36;100.00
77112;BME280;66064;50.226;14.344;2023-12-07T00:10:45;99604.50;;;-0.28;100.00
77112;BME280;66064;50.226;14.344;2023-12-07T00:13:11;99609.06;;;-0.24;100.00
77112;BME280;66064;50.226;14.344;2023-12-07T00:15:37;99607.63;;;-0.19;100.00
77112;BME280;66064;50.226;14.344;2023-12-07T00:18:03;99600.75;;;-0.33;100.00
77112;BME280;66064;50.226;14.344;2023-12-07T00:20:29;99618.81;;;-0.21;100.00
77112;BME280;66064;50.226;14.344;2023-12-07T00:22:56;99622.41;;;-0.19;100.00
77112;BME280;66064;50.226;14.344;2023-12-07T00:25:22;99619.53;;;-0.24;100.00
77112;BME280;66064;50.226;14.344;2023-12-07T00:27:49;99626.72;;;-0.20;100.00
77112;BME280;66064;50.226;14.344;2023-12-07T00:30:15;99621.34;;;-0.23;100.00
77112;BME280;66064;50.226;14.344;2023-12-07T00:32:41;99619.44;;;-0.25;100.00
77112;BME280;66064;50.226;14.344;2023-12-07T00:35:10;99623.22;;;-0.37;100.00
77112;BME280;66064;50.226;14.344;2023-12-07T00:37:36;99625.00;;;-0.36;100.00
77112;BME280;66064;50.226;14.344;2023-12-07T00:40:03;99611.25;;;-0.31;100.00
77112;BME280;66064;50.226;14.344;2023-12-07T00:42:30;99626.56;;;-0.23;100.00
77112;BME280;66064;50.226;14.344;2023-12-07T00:44:56;99609.63;;;-0.29;100.00
77112;BME280;66064;50.226;14.344;2023-12-07T00:47:22;99618.38;;;-0.29;100.00
77112;BME280;66064;50.226;14.344;2023-12-07T00:49:48;99615.75;;;-0.29;100.00
77112;BME280;66064;50.226;14.344;2023-12-07T00:52:14;99620.00;;;-0.31;100.00
77112;BME280;66064;50.226;14.344;2023-12-07T00:54:41;99619.38;;;-0.27;100.00
77112;BME280;66064;50.226;14.344;2023-12-07T00:57:07;99629.91;;;-0.25;100.00
77112;BME280;66064;50.226;14.344;2023-12-07T00:59:33;99620.81;;;-0.32;100.00
77112;BME280;66064;50.226;14.344;2023-12-07T01:02:01;99620.69;;;-0.35;100.00
77112;BME280;66064;50.226;14.344;2023-12-07T01:04:28;99629.50;;;-0.33;100.00
77112;BME280;66064;50.226;14.344;2023-12-07T01:06:54;99625.00;;;-0.36;100.00
77112;BME280;66064;50.226;14.344;2023-12-07T01:09:21;99624.28;;;-0.33;100.00
77112;BME280;66064;50.226;14.344;2023-12-07T01:11:47;99636.22;;;-0.22;100.00
77112;BME280;66064;50.226;14.344;2023-12-07T01:14:14;99634.75;;;-0.17;100.00
77112;BME280;66064;50.226;14.344;2023-12-07T01:16:40;99635.66;;;-0.16;100.00
77112;BME280;66064;50.226;14.344;2023-12-07T01:19:06;99637.50;;;-0.14;100.00
77112;BME280;66064;50.226;14.344;2023-12-07T01:21:33;99636.69;;;-0.13;100.00
77112;BME280;66064;50.226;14.344;2023-12-07T01:23:59;99642.66;;;-0.15;100.00
77112;BME280;66064;50.226;14.344;2023-12-07T01:26:25;99645.13;;;-0.18;100.00
77112;BME280;66064;50.226;14.344;2023-12-07T01:28:51;99642.44;;;-0.20;100.00
77112;BME280;66064;50.226;14.344;2023-12-07T01:31:17;99628.19;;;-0.25;100.00
77112;BME280;66064;50.226;14.344;2023-12-07T01:33:44;99637.50;;;-0.14;100.00
77112;BME280;66064;50.226;14.344;2023-12-07T01:36:10;99639.06;;;-0.17;100.00
77112;BME280;66064;50.226;14.344;2023-12-07T01:38:37;99639.13;;;-0.16;100.00
77112;BME280;66064;50.226;14.344;2023-12-07T01:41:03;99634.97;;;-0.12;100.00
77112;BME280;66064;50.226;14.344;2023-12-07T01:43:31;99638.56;;;-0.10;100.00
77112;BME280;66064;50.226;14.344;2023-12-07T01:45:57;99649.19;;;-0.07;100.00
77112;BME280;66064;50.226;14.344;2023-12-07T01:48:25;99654.59;;;-0.04;100.00
77112;BME280;66064;50.226;14.344;2023-12-07T01:50:54;99656.31;;;-0.05;100.00
77112;BME280;66064;50.226;14.344;2023-12-07T01:53:23;99653.28;;;-0.12;100.00
77112;BME280;66064;50.226;14.344;2023-12-07T01:55:51;99649.53;;;-0.17;100.00
77112;BME280;66064;50.226;14.344;2023-12-07T01:58:19;99654.25;;;-0.10;100.00
77112;BME280;66064;50.226;14.344;2023-12-07T02:00:45;99659.41;;;-0.12;100.00
77112;BME280;66064;50.226;14.344;2023-12-07T02:03:12;99655.81;;;-0.14;100.00
77112;BME280;66064;50.226;14.344;2023-12-07T02:05:43;99658.94;;;-0.21;100.00
77112;BME280;66064;50.226;14.344;2023-12-07T02:08:12;99665.16;;;-0.19;100.00
77112;BME280;66064;50.226;14.344;2023-12-07T02:10:37;99663.50;;;-0.33;100.00
77112;BME280;66064;50.226;14.344;2023-12-07T02:13:04;99676.16;;;-0.24;100.00
77112;BME280;66064;50.226;14.344;2023-12-07T02:15:31;99671.66;;;-0.27;100.00
77112;BME280;66064;50.226;14.344;2023-12-07T02:18:17;99669.13;;;-0.25;100.00
77112;BME280;66064;50.226;14.344;2023-12-07T02:23:39;99678.44;;;-0.30;100.00
77112;BME280;66064;50.226;14.344;2023-12-07T02:26:08;99679.25;;;-0.31;100.00
77112;BME280;66064;50.226;14.344;2023-12-07T02:28:36;99666.94;;;-0.34;100.00
77112;BME280;66064;50.226;14.344;2023-12-07T02:31:03;99683.59;;;-0.16;100.00
77112;BME280;66064;50.226;14.344;2023-12-07T02:33:29;99676.56;;;-0.33;100.00
77112;BME280;66064;50.226;14.344;2023-12-07T02:35:55;99685.38;;;-0.31;100.00
77112;BME280;66064;50.226;14.344;2023-12-07T02:38:26;99687.09;;;-0.31;100.00
77112;BME280;66064;50.226;14.344;2023-12-07T02:40:54;99682.75;;;-0.31;100.00
77112;BME280;66064;50.226;14.344;2023-12-07T02:43:22;99688.34;;;-0.25;100.00
77112;BME280;66064;50.226;14.344;2023-12-07T02:45:48;99685.00;;;-0.22;100.00
77112;BME280;66064;50.226;14.344;2023-12-07T02:48:14;99695.03;;;-0.14;100.00
77112;BME280;66064;50.226;14.344;2023-12-07T02:50:42;99688.00;;;-0.15;100.00
77112;BME280;66064;50.226;14.344;2023-12-07T02:53:08;99685.25;;;-0.18;100.00
77112;BME280;66064;50.226;14.344;2023-12-07T02:55:35;99690.94;;;-0.25;100.00
77112;BME280;66064;50.226;14.344;2023-12-07T02:58:01;99678.88;;;-0.23;100.00
77112;BME280;66064;50.226;14.344;2023-12-07T03:00:27;99683.69;;;-0.14;100.00
77112;BME280;66064;50.226;14.344;2023-12-07T03:02:53;99697.91;;;0.07;100.00
77112;BME280;66064;50.226;14.344;2023-12-07T03:05:19;99700.69;;;-0.22;100.00
77112;BME280;66064;50.226;14.344;2023-12-07T03:07:46;99706.25;;;-0.16;100.00
77112;BME280;66064;50.226;14.344;2023-12-07T03:10:12;99687.06;;;-0.17;100.00
77112;BME280;66064;50.226;14.344;2023-12-07T03:12:38;99703.31;;;-0.06;100.00
77112;BME280;66064;50.226;14.344;2023-12-07T03:15:04;99693.94;;;-0.03;100.00
77112;BME280;66064;50.226;14.344;2023-12-07T03:17:30;99709.63;;;-0.03;100.00
77112;BME280;66064;50.226;14.344;2023-12-07T03:19:56;99706.03;;;-0.05;100.00
77112;BME280;66064;50.226;14.344;2023-12-07T03:22:22;99696.03;;;-0.12;100.00
77112;BME280;66064;50.226;14.344;2023-12-07T03:24:49;99702.25;;;-0.10;100.00
77112;BME280;66064;50.226;14.344;2023-12-07T03:27:16;99716.66;;;-0.02;100.00
77112;BME280;66064;50.226;14.344;2023-12-07T03:29:42;99704.03;;;-0.09;100.00
77112;BME280;66064;50.226;14.344;2023-12-07T03:32:08;99718.59;;;0.03;100.00
77112;BME280;66064;50.226;14.344;2023-12-07T03:34:34;99729.47;;;-0.06;100.00
77112;BME280;66064;50.226;14.344;2023-12-07T03:37:00;99718.50;;;-0.15;100.00
77112;BME280;66064;50.226;14.344;2023-12-07T03:39:26;99728.22;;;-0.13;100.00
77112;BME280;66064;50.226;14.344;2023-12-07T03:41:52;99737.88;;;-0.12;100.00
77112;BME280;66064;50.226;14.344;2023-12-07T03:44:18;99738.59;;;-0.14;100.00
77112;BME280;66064;50.226;14.344;2023-12-07T03:46:44;99723.00;;;-0.13;100.00
77112;BME280;66064;50.226;14.344;2023-12-07T03:49:10;99720.16;;;-0.17;100.00
77112;BME280;66064;50.226;14.344;2023-12-07T03:51:37;99726.13;;;-0.04;100.00
77112;BME280;66064;50.226;14.344;2023-12-07T03:54:03;99734.97;;;-0.02;100.00
77112;BME280;66064;50.226;14.344;2023-12-07T03:56:33;99733.41;;;0.02;100.00
77112;BME280;66064;50.226;14.344;2023-12-07T03:58:58;99734.16;;;-0.01;100.00
77112;BME280;66064;50.226;14.344;2023-12-07T04:01:26;99748.72;;;0.11;100.00
77112;BME280;66064;50.226;14.344;2023-12-07T04:03:54;99742.41;;;0.07;100.00
77112;BME280;66064;50.226;14.344;2023-12-07T04:06:23;99748.44;;;0.06;100.00
77112;BME280;66064;50.226;14.344;2023-12-07T04:08:49;99741.16;;;0.00;100.00
77112;BME280;66064;50.226;14.344;2023-12-07T04:11:16;99741.00;;;-0.03;100.00
77112;BME280;66064;50.226;14.344;2023-12-07T04:13:43;99756.47;;;0.09;100.00
77112;BME280;66064;50.226;14.344;2023-12-07T04:16:09;99752.88;;;0.07;100.00
77112;BME280;66064;50.226;14.344;2023-12-07T04:18:36;99761.53;;;0.06;100.00
77112;BME280;66064;50.226;14.344;2023-12-07T04:21:03;99749.69;;;-0.04;100.00
77112;BME280;66064;50.226;14.344;2023-12-07T04:23:29;99746.63;;;-0.11;100.00
77112;BME280;66064;50.226;14.344;2023-12-07T04:25:55;99760.31;;;-0.01;100.00
77112;BME280;66064;50.226;14.344;2023-12-07T04:28:21;99757.84;;;0.03;100.00
77112;BME280;66064;50.226;14.344;2023-12-07T04:30:47;99769.66;;;0.11;100.00
77112;BME280;66064;50.226;14.344;2023-12-07T04:33:13;99777.16;;;0.21;100.00
77112;BME280;66064;50.226;14.344;2023-12-07T04:35:40;99769.13;;;0.02;100.00
77112;BME280;66064;50.226;14.344;2023-12-07T04:38:05;99777.78;;;0.00;100.00
77112;BME280;66064;50.226;14.344;2023-12-07T04:40:32;99770.59;;;-0.04;100.00
77112;BME280;66064;50.226;14.344;2023-12-07T04:42:59;99775.13;;;-0.01;100.00
77112;BME280;66064;50.226;14.344;2023-12-07T04:45:25;99783.91;;;0.01;100.00
77112;BME280;66064;50.226;14.344;2023-12-07T04:47:51;99787.16;;;0.12;100.00
77112;BME280;66064;50.226;14.344;2023-12-07T04:50:17;99779.38;;;0.13;100.00
77112;BME280;66064;50.226;14.344;2023-12-07T04:52:43;99785.44;;;0.12;100.00
77112;BME280;66064;50.226;14.344;2023-12-07T04:55:09;99787.31;;;0.15;100.00
77112;BME280;66064;50.226;14.344;2023-12-07T04:57:36;99774.78;;;0.09;100.00
77112;BME280;66064;50.226;14.344;2023-12-07T05:00:03;99781.31;;;0.17;100.00
77112;BME280;66064;50.226;14.344;2023-12-07T05:02:31;99790.03;;;0.16;100.00
77112;BME280;66064;50.226;14.344;2023-12-07T05:04:58;99783.88;;;0.16;100.00
77112;BME280;66064;50.226;14.344;2023-12-07T05:07:24;99784.94;;;0.19;100.00
77112;BME280;66064;50.226;14.344;2023-12-07T05:09:50;99771.28;;;0.09;100.00
77112;BME280;66064;50.226;14.344;2023-12-07T05:12:19;99781.91;;;0.12;100.00
77112;BME280;66064;50.226;14.344;2023-12-07T05:14:45;99796.13;;;0.17;100.00
77112;BME280;66064;50.226;14.344;2023-12-07T05:17:11;99792.56;;;0.15;100.00
77112;BME280;66064;50.226;14.344;2023-12-07T05:19:37;99783.81;;;0.14;100.00
77112;BME280;66064;50.226;14.344;2023-12-07T05:22:03;99801.53;;;0.20;100.00
77112;BME280;66064;50.226;14.344;2023-12-07T05:24:30;99799.19;;;0.24;100.00
77112;BME280;66064;50.226;14.344;2023-12-07T05:26:57;99805.63;;;0.15;100.00
77112;BME280;66064;50.226;14.344;2023-12-07T05:29:23;99797.13;;;0.19;100.00
77112;BME280;66064;50.226;14.344;2023-12-07T05:31:50;99800.53;;;0.18;100.00
77112;BME280;66064;50.226;14.344;2023-12-07T05:34:18;99815.44;;;0.19;100.00
77112;BME280;66064;50.226;14.344;2023-12-07T05:36:44;99789.09;;;-0.01;100.00
77112;BME280;66064;50.226;14.344;2023-12-07T05:39:12;99819.03;;;0.21;100.00
77112;BME280;66064;50.226;14.344;2023-12-07T05:41:38;99797.63;;;0.12;100.00
77112;BME280;66064;50.226;14.344;2023-12-07T05:44:05;99816.91;;;0.14;100.00
77112;BME280;66064;50.226;14.344;2023-12-07T05:46:32;99819.69;;;0.17;100.00
77112;BME280;66064;50.226;14.344;2023-12-07T05:49:01;99814.44;;;0.17;100.00
77112;BME280;66064;50.226;14.344;2023-12-07T05:51:26;99820.75;;;0.20;100.00
77112;BME280;66064;50.226;14.344;2023-12-07T05:53:53;99820.13;;;0.24;100.00
77112;BME280;66064;50.226;14.344;2023-12-07T05:56:19;99818.47;;;0.26;100.00
77112;BME280;66064;50.226;14.344;2023-12-07T05:58:47;99822.47;;;0.20;100.00
77112;BME280;66064;50.226;14.344;2023-12-07T06:01:19;99815.59;;;0.22;100.00
77112;BME280;66064;50.226;14.344;2023-12-07T06:03:46;99821.75;;;0.22;100.00
77112;BME280;66064;50.226;14.344;2023-12-07T06:06:13;99817.66;;;0.27;100.00
77112;BME280;66064;50.226;14.344;2023-12-07T06:08:39;99811.09;;;0.19;100.00
77112;BME280;66064;50.226;14.344;2023-12-07T06:11:06;99820.66;;;0.19;100.00
77112;BME280;66064;50.226;14.344;2023-12-07T06:13:32;99816.91;;;0.14;100.00
77112;BME280;66064;50.226;14.344;2023-12-07T06:15:59;99828.88;;;0.25;100.00
77112;BME280;66064;50.226;14.344;2023-12-07T06:18:28;99825.16;;;0.21;100.00
77112;BME280;66064;50.226;14.344;2023-12-07T06:20:54;99827.16;;;0.25;100.00
77112;BME280;66064;50.226;14.344;2023-12-07T06:23:20;99814.38;;;0.15;100.00
77112;BME280;66064;50.226;14.344;2023-12-07T06:25:46;99828.69;;;0.22;100.00
77112;BME280;66064;50.226;14.344;2023-12-07T06:28:13;99839.16;;;0.22;100.00
77112;BME280;66064;50.226;14.344;2023-12-07T06:30:39;99843.56;;;0.23;100.00
77112;BME280;66064;50.226;14.344;2023-12-07T06:33:05;99835.81;;;0.24;100.00
77112;BME280;66064;50.226;14.344;2023-12-07T06:35:30;99838.16;;;0.20;100.00
77112;BME280;66064;50.226;14.344;2023-12-07T06:37:56;99846.56;;;0.29;100.00
77112;BME280;66064;50.226;14.344;2023-12-07T06:40:22;99844.22;;;0.19;100.00
77112;BME280;66064;50.226;14.344;2023-12-07T06:42:48;99842.81;;;0.09;100.00
77112;BME280;66064;50.226;14.344;2023-12-07T06:45:14;99841.03;;;0.08;100.00
77112;BME280;66064;50.226;14.344;2023-12-07T06:47:41;99842.38;;;0.02;100.00
77112;BME280;66064;50.226;14.344;2023-12-07T06:50:10;99838.31;;;0.07;100.00
77112;BME280;66064;50.226;14.344;2023-12-07T06:52:37;99846.69;;;0.16;100.00
77112;BME280;66064;50.226;14.344;2023-12-07T06:55:03;99856.56;;;0.21;100.00
77112;BME280;66064;50.226;14.344;2023-12-07T06:57:29;99862.72;;;0.22;100.00
77112;BME280;66064;50.226;14.344;2023-12-07T06:59:55;99852.88;;;0.18;100.00
77112;BME280;66064;50.226;14.344;2023-12-07T07:02:22;99855.03;;;0.25;100.00
77112;BME280;66064;50.226;14.344;2023-12-07T07:04:49;99869.38;;;0.31;100.00
77112;BME280;66064;50.226;14.344;2023-12-07T07:07:15;99871.50;;;0.39;100.00
77112;BME280;66064;50.226;14.344;2023-12-07T07:09:41;99863.91;;;0.43;100.00
77112;BME280;66064;50.226;14.344;2023-12-07T07:12:08;99872.94;;;0.48;100.00
77112;BME280;66064;50.226;14.344;2023-12-07T07:14:34;99866.69;;;0.46;100.00
77112;BME280;66064;50.226;14.344;2023-12-07T07:17:00;99862.44;;;0.48;100.00
77112;BME280;66064;50.226;14.344;2023-12-07T07:19:26;99871.44;;;0.53;100.00
77112;BME280;66064;50.226;14.344;2023-12-07T07:21:52;99869.34;;;0.62;100.00
77112;BME280;66064;50.226;14.344;2023-12-07T07:24:18;99881.94;;;0.69;100.00
77112;BME280;66064;50.226;14.344;2023-12-07T07:26:45;99880.22;;;0.70;100.00
77112;BME280;66064;50.226;14.344;2023-12-07T07:29:11;99876.78;;;0.71;100.00
77112;BME280;66064;50.226;14.344;2023-12-07T07:31:37;99871.38;;;0.68;100.00
77112;BME280;66064;50.226;14.344;2023-12-07T07:34:03;99882.44;;;0.79;100.00
77112;BME280;66064;50.226;14.344;2023-12-07T07:36:30;99883.00;;;0.73;100.00
77112;BME280;66064;50.226;14.344;2023-12-07T07:38:56;99872.44;;;0.72;100.00
77112;BME280;66064;50.226;14.344;2023-12-07T07:41:22;99877.84;;;0.75;100.00
77112;BME280;66064;50.226;14.344;2023-12-07T07:43:48;99878.56;;;0.88;100.00
77112;BME280;66064;50.226;14.344;2023-12-07T07:46:14;99876.28;;;0.94;100.00
77112;BME280;66064;50.226;14.344;2023-12-07T07:48:40;99877.50;;;1.01;100.00
77112;BME280;66064;50.226;14.344;2023-12-07T07:51:06;99865.47;;;0.88;100.00
77112;BME280;66064;50.226;14.344;2023-12-07T07:53:32;99879.66;;;0.92;100.00
77112;BME280;66064;50.226;14.344;2023-12-07T07:55:58;99861.38;;;0.93;100.00
77112;BME280;66064;50.226;14.344;2023-12-07T07:58:24;99883.16;;;1.09;100.00
77112;BME280;66064;50.226;14.344;2023-12-07T08:00:50;99888.50;;;1.10;100.00
77112;BME280;66064;50.226;14.344;2023-12-07T08:03:17;99880.84;;;1.15;100.00
77112;BME280;66064;50.226;14.344;2023-12-07T08:05:42;99881.00;;;1.18;100.00
77112;BME280;66064;50.226;14.344;2023-12-07T08:08:08;99876.59;;;1.00;100.00
77112;BME280;66064;50.226;14.344;2023-12-07T08:10:34;99892.22;;;1.15;100.00
77112;BME280;66064;50.226;14.344;2023-12-07T08:13:00;99883.72;;;1.19;100.00
77112;BME280;66064;50.226;14.344;2023-12-07T08:15:26;99887.66;;;1.27;100.00
77112;BME280;66064;50.226;14.344;2023-12-07T08:17:52;99881.66;;;1.30;100.00
77112;BME280;66064;50.226;14.344;2023-12-07T08:20:18;99886.38;;;1.37;100.00
77112;BME280;66064;50.226;14.344;2023-12-07T08:22:44;99890.16;;;1.42;100.00
77112;BME280;66064;50.226;14.344;2023-12-07T08:25:11;99887.69;;;1.45;100.00
77112;BME280;66064;50.226;14.344;2023-12-07T08:27:38;99895.03;;;1.52;100.00
77112;BME280;66064;50.226;14.344;2023-12-07T08:30:04;99885.84;;;1.60;100.00
77112;BME280;66064;50.226;14.344;2023-12-07T08:32:31;99884.25;;;1.64;100.00
77112;BME280;66064;50.226;14.344;2023-12-07T08:34:56;99895.66;;;1.64;100.00
77112;BME280;66064;50.226;14.344;2023-12-07T08:37:22;99876.38;;;1.64;100.00
77112;BME280;66064;50.226;14.344;2023-12-07T08:39:48;99890.28;;;1.79;100.00
77112;BME280;66064;50.226;14.344;2023-12-07T08:42:14;99888.78;;;1.84;100.00
77112;BME280;66064;50.226;14.344;2023-12-07T08:44:40;99892.41;;;1.86;100.00
77112;BME280;66064;50.226;14.344;2023-12-07T08:47:07;99887.47;;;1.92;100.00
77112;BME280;66064;50.226;14.344;2023-12-07T08:49:32;99883.63;;;2.03;99.35
77112;BME280;66064;50.226;14.344;2023-12-07T08:51:58;99899.16;;;2.17;98.46
77112;BME280;66064;50.226;14.344;2023-12-07T08:54:24;99892.69;;;2.28;97.80
77112;BME280;66064;50.226;14.344;2023-12-07T08:56:51;99896.28;;;2.30;96.62
77112;BME280;66064;50.226;14.344;2023-12-07T08:59:17;99891.72;;;2.26;96.31
77112;BME280;66064;50.226;14.344;2023-12-07T09:01:43;99903.94;;;2.43;96.72
77112;BME280;66064;50.226;14.344;2023-12-07T09:04:09;99896.25;;;2.47;95.65
77112;BME280;66064;50.226;14.344;2023-12-07T09:06:36;99902.56;;;2.51;95.84
77112;BME280;66064;50.226;14.344;2023-12-07T09:09:03;99906.31;;;2.56;95.00
77112;BME280;66064;50.226;14.344;2023-12-07T09:11:33;99910.34;;;2.67;95.33
77112;BME280;66064;50.226;14.344;2023-12-07T09:13:58;99894.28;;;2.61;94.12
77112;BME280;66064;50.226;14.344;2023-12-07T09:16:25;99899.97;;;2.70;94.25
77112;BME280;66064;50.226;14.344;2023-12-07T09:18:51;99906.53;;;2.80;93.32
77112;BME280;66064;50.226;14.344;2023-12-07T09:21:18;99908.25;;;2.60;94.16
77112;BME280;66064;50.226;14.344;2023-12-07T09:23:43;99913.50;;;2.60;93.48
77112;BME280;66064;50.226;14.344;2023-12-07T09:26:10;99907.31;;;2.77;93.15
77112;BME280;66064;50.226;14.344;2023-12-07T09:28:36;99909.09;;;2.78;92.97
77112;BME280;66064;50.226;14.344;2023-12-07T09:31:02;99904.28;;;2.88;91.92
77112;BME280;66064;50.226;14.344;2023-12-07T09:33:28;99905.66;;;2.99;91.92
77112;BME280;66064;50.226;14.344;2023-12-07T09:35:54;99911.88;;;2.81;92.51
77112;BME280;66064;50.226;14.344;2023-12-07T09:38:20;99909.50;;;3.05;91.99
77112;BME280;66064;50.226;14.344;2023-12-07T09:40:46;99896.81;;;2.97;91.37
77112;BME280;66064;50.226;14.344;2023-12-07T09:43:13;99900.13;;;3.12;91.26
77112;BME280;66064;50.226;14.344;2023-12-07T09:45:39;99894.47;;;3.03;91.00
77112;BME280;66064;50.226;14.344;2023-12-07T09:48:05;99893.22;;;3.14;91.41
77112;BME280;66064;50.226;14.344;2023-12-07T09:50:33;99904.47;;;3.31;91.16
77112;BME280;66064;50.226;14.344;2023-12-07T09:52:59;99894.31;;;3.19;89.58
77112;BME280;66064;50.226;14.344;2023-12-07T09:55:25;99902.34;;;3.22;90.25
77112;BME280;66064;50.226;14.344;2023-12-07T09:57:51;99913.13;;;3.28;90.35
77112;BME280;66064;50.226;14.344;2023-12-07T10:00:20;99906.50;;;3.36;89.07
77112;BME280;66064;50.226;14.344;2023-12-07T10:02:46;99903.41;;;3.46;89.29
77112;BME280;66064;50.226;14.344;2023-12-07T10:05:13;99889.06;;;3.38;88.44
77112;BME280;66064;50.226;14.344;2023-12-07T10:07:46;99893.31;;;3.56;89.72
77112;BME280;66064;50.226;14.344;2023-12-07T10:10:17;99886.50;;;3.61;89.40
77112;BME280;66064;50.226;14.344;2023-12-07T10:15:18;99897.75;;;3.77;87.00
77112;BME280;66064;50.226;14.344;2023-12-07T10:17:53;99898.09;;;3.85;87.26
77112;BME280;66064;50.226;14.344;2023-12-07T10:20:21;99894.06;;;3.74;87.76
77112;BME280;66064;50.226;14.344;2023-12-07T10:23:06;99897.69;;;3.76;87.17
77112;BME280;66064;50.226;14.344;2023-12-07T10:25:36;99891.75;;;3.61;87.45
77112;BME280;66064;50.226;14.344;2023-12-07T10:28:02;99884.69;;;3.60;86.19
77112;BME280;66064;50.226;14.344;2023-12-07T10:30:36;99870.84;;;3.64;85.56
77112;BME280;66064;50.226;14.344;2023-12-07T10:33:05;99884.44;;;3.74;85.55
77112;BME280;66064;50.226;14.344;2023-12-07T10:35:37;99884.69;;;3.60;86.49
77112;BME280;66064;50.226;14.344;2023-12-07T10:38:03;99889.53;;;3.70;86.71
77112;BME280;66064;50.226;14.344;2023-12-07T10:40:29;99892.41;;;3.76;86.59
77112;BME280;66064;50.226;14.344;2023-12-07T10:42:57;99887.03;;;3.73;86.62
77112;BME280;66064;50.226;14.344;2023-12-07T10:45:29;99883.91;;;3.41;86.68
77112;BME280;66064;50.226;14.344;2023-12-07T10:48:02;99885.31;;;3.33;87.30
77112;BME280;66064;50.226;14.344;2023-12-07T10:50:33;99881.72;;;3.12;87.09
77112;BME280;66064;50.226;14.344;2023-12-07T10:53:04;99879.38;;;3.18;87.77
77112;BME280;66064;50.226;14.344;2023-12-07T10:55:35;99885.03;;;3.27;87.09
77112;BME280;66064;50.226;14.344;2023-12-07T10:58:04;99869.00;;;3.21;87.48
77112;BME280;66064;50.226;14.344;2023-12-07T11:00:33;99881.56;;;3.28;85.63
77112;BME280;66064;50.226;14.344;2023-12-07T11:02:59;99869.13;;;3.24;86.40
77112;BME280;66064;50.226;14.344;2023-12-07T11:05:26;99885.59;;;3.39;84.64
77112;BME280;66064;50.226;14.344;2023-12-07T11:07:58;99877.81;;;3.42;85.26
77112;BME280;66064;50.226;14.344;2023-12-07T11:10:36;99886.97;;;3.31;84.80
77112;BME280;66064;50.226;14.344;2023-12-07T11:13:45;99864.28;;;3.33;85.20
77112;BME280;66064;50.226;14.344;2023-12-07T11:16:09;99866.34;;;3.40;85.71
77112;BME280;66064;50.226;14.344;2023-12-07T11:18:34;99883.56;;;3.53;85.49
77112;BME280;66064;50.226;14.344;2023-12-07T11:21:01;99884.47;;;3.34;86.47
77112;BME280;66064;50.226;14.344;2023-12-07T11:23:28;99879.19;;;3.54;85.72
77112;BME280;66064;50.226;14.344;2023-12-07T11:25:55;99871.81;;;3.26;86.06
77112;BME280;66064;50.226;14.344;2023-12-07T11:28:35;99882.25;;;3.43;85.77
77112;BME280;66064;50.226;14.344;2023-12-07T11:31:02;99881.88;;;3.55;85.58
77112;BME280;66064;50.226;14.344;2023-12-07T11:33:29;99877.78;;;3.62;84.96
77112;BME280;66064;50.226;14.344;2023-12-07T11:38:27;99876.03;;;3.62;82.44
77112;BME280;66064;50.226;14.344;2023-12-07T11:40:55;99864.22;;;3.53;83.64
77112;BME280;66064;50.226;14.344;2023-12-07T11:46:01;99862.00;;;3.41;84.84
77112;BME280;66064;50.226;14.344;2023-12-07T11:48:27;99882.00;;;3.37;84.63
77112;BME280;66064;50.226;14.344;2023-12-07T11:53:27;99868.09;;;3.21;85.07
77112;BME280;66064;50.226;14.344;2023-12-07T11:55:55;99872.44;;;3.39;85.41
77112;BME280;66064;50.226;14.344;2023-12-07T11:58:21;99875.06;;;3.39;85.77
77112;BME280;66064;50.226;14.344;2023-12-07T12:00:47;99855.75;;;3.39;84.75
77112;BME280;66064;50.226;14.344;2023-12-07T12:03:14;99867.72;;;3.32;84.15
77112;BME280;66064;50.226;14.344;2023-12-07T12:05:41;99863.88;;;3.45;84.59
77112;BME280;66064;50.226;14.344;2023-12-07T12:08:08;99873.34;;;3.40;84.54
77112;BME280;66064;50.226;14.344;2023-12-07T12:10:34;99865.44;;;3.40;84.90
77112;BME280;66064;50.226;14.344;2023-12-07T12:13:03;99870.72;;;3.40;85.00
77112;BME280;66064;50.226;14.344;2023-12-07T12:15:30;99864.28;;;3.33;85.30
77112;BME280;66064;50.226;14.344;2023-12-07T12:17:57;99865.56;;;3.43;86.08
77112;BME280;66064;50.226;14.344;2023-12-07T12:20:27;99871.84;;;3.46;86.61
77112;BME280;66064;50.226;14.344;2023-12-07T12:22:54;99852.28;;;3.40;86.91
77112;BME280;66064;50.226;14.344;2023-12-07T12:25:22;99858.50;;;3.42;87.35
77112;BME280;66064;50.226;14.344;2023-12-07T12:27:50;99857.59;;;3.41;86.05
77112;BME280;66064;50.226;14.344;2023-12-07T12:30:18;99859.75;;;3.31;85.33
77112;BME280;66064;50.226;14.344;2023-12-07T12:32:44;99861.19;;;3.23;85.69
77112;BME280;66064;50.226;14.344;2023-12-07T12:35:10;99851.91;;;3.11;84.99
77112;BME280;66064;50.226;14.344;2023-12-07T12:37:45;99860.00;;;3.16;85.02
77112;BME280;66064;50.226;14.344;2023-12-07T12:40:12;99861.66;;;3.14;85.15
77112;BME280;66064;50.226;14.344;2023-12-07T12:42:51;99864.50;;;3.19;86.11
77112;BME280;66064;50.226;14.344;2023-12-07T12:45:18;99867.41;;;3.25;86.17
77112;BME280;66064;50.226;14.344;2023-12-07T12:47:45;99870.81;;;3.22;86.82
77112;BME280;66064;50.226;14.344;2023-12-07T12:50:39;99873.97;;;3.15;86.66
77112;BME280;66064;50.226;14.344;2023-12-07T12:53:06;99872.09;;;3.12;87.31
77112;BME280;66064;50.226;14.344;2023-12-07T12:55:35;99873.72;;;2.90;86.24
77112;BME280;66064;50.226;14.344;2023-12-07T12:58:02;99879.06;;;2.91;88.35
77112;BME280;66064;50.226;14.344;2023-12-07T13:00:30;99870.94;;;2.87;88.79
77112;BME280;66064;50.226;14.344;2023-12-07T13:03:00;99874.94;;;2.98;89.12